sensor_id;sensor_type;location;lat;lon;timestamp;P1;durP1;ratioP1;P2;durP2;ratioP2
68188;SDS011;55008;47.514;19.218;2022-11-15T00:01:39;534.58;;;84.30;;
68188;SDS011;55008;47.514;19.218;2022-11-15T00:04:07;594.83;;;86.82;;
68188;SDS011;55008;47.514;19.218;2022-11-15T00:06:38;557.10;;;83.18;;
68188;SDS011;55008;47.514;19.218;2022-11-15T00:09:07;585.85;;;86.32;;
68188;SDS011;55008;47.514;19.218;2022-11-15T00:11:36;553.25;;;82.45;;
68188;SDS011;55008;47.514;19.218;2022-11-15T00:14:06;509.25;;;82.25;;
68188;SDS011;55008;47.514;19.218;2022-11-15T00:16:35;723.10;;;95.57;;
68188;SDS011;55008;47.514;19.218;2022-11-15T00:19:04;447.85;;;84.90;;
68188;SDS011;55008;47.514;19.218;2022-11-15T00:21:33;542.83;;;91.93;;
68188;SDS011;55008;47.514;19.218;2022-11-15T00:24:03;458.73;;;87.18;;
68188;SDS011;55008;47.514;19.218;2022-11-15T00:26:32;501.45;;;85.57;;
68188;SDS011;55008;47.514;19.218;2022-11-15T00:29:00;485.10;;;84.93;;
68188;SDS011;55008;47.514;19.218;2022-11-15T00:31:29;490.55;;;80.47;;
68188;SDS011;55008;47.514;19.218;2022-11-15T00:33:57;490.15;;;80.78;;
68188;SDS011;55008;47.514;19.218;2022-11-15T00:36:27;375.80;;;75.95;;
68188;SDS011;55008;47.514;19.218;2022-11-15T00:39:02;563.80;;;86.18;;
68188;SDS011;55008;47.514;19.218;2022-11-15T00:41:33;513.97;;;84.85;;
68188;SDS011;55008;47.514;19.218;2022-11-15T00:44:01;436.35;;;78.30;;
68188;SDS011;55008;47.514;19.218;2022-11-15T00:46:29;401.17;;;79.80;;
68188;SDS011;55008;47.514;19.218;2022-11-15T00:48:58;472.80;;;84.82;;
68188;SDS011;55008;47.514;19.218;2022-11-15T00:51:26;460.42;;;82.78;;
68188;SDS011;55008;47.514;19.218;2022-11-15T00:53:58;319.02;;;79.63;;
68188;SDS011;55008;47.514;19.218;2022-11-15T00:56:30;380.80;;;82.10;;
68188;SDS011;55008;47.514;19.218;2022-11-15T00:58:59;348.90;;;76.35;;
68188;SDS011;55008;47.514;19.218;2022-11-15T01:01:27;287.42;;;73.72;;
68188;SDS011;55008;47.514;19.218;2022-11-15T01:03:56;309.27;;;71.90;;
68188;SDS011;55008;47.514;19.218;2022-11-15T01:06:27;293.17;;;69.55;;
68188;SDS011;55008;47.514;19.218;2022-11-15T01:08:55;286.05;;;69.63;;
68188;SDS011;55008;47.514;19.218;2022-11-15T01:11:26;287.33;;;71.63;;
68188;SDS011;55008;47.514;19.218;2022-11-15T01:13:56;336.65;;;72.60;;
68188;SDS011;55008;47.514;19.218;2022-11-15T01:16:24;266.92;;;68.65;;
68188;SDS011;55008;47.514;19.218;2022-11-15T01:18:53;264.83;;;68.40;;
68188;SDS011;55008;47.514;19.218;2022-11-15T01:21:22;245.10;;;65.70;;
68188;SDS011;55008;47.514;19.218;2022-11-15T01:23:54;244.43;;;61.13;;
68188;SDS011;55008;47.514;19.218;2022-11-15T01:26:23;223.10;;;60.67;;
68188;SDS011;55008;47.514;19.218;2022-11-15T01:28:52;237.07;;;62.85;;
68188;SDS011;55008;47.514;19.218;2022-11-15T01:31:23;219.38;;;60.47;;
68188;SDS011;55008;47.514;19.218;2022-11-15T01:33:51;235.20;;;65.55;;
68188;SDS011;55008;47.514;19.218;2022-11-15T01:36:21;199.45;;;61.72;;
68188;SDS011;55008;47.514;19.218;2022-11-15T01:38:52;204.25;;;62.47;;
68188;SDS011;55008;47.514;19.218;2022-11-15T01:41:22;204.25;;;61.17;;
68188;SDS011;55008;47.514;19.218;2022-11-15T01:43:55;213.50;;;60.60;;
68188;SDS011;55008;47.514;19.218;2022-11-15T01:46:30;195.95;;;58.47;;
68188;SDS011;55008;47.514;19.218;2022-11-15T01:49:03;194.43;;;55.83;;
68188;SDS011;55008;47.514;19.218;2022-11-15T01:51:39;189.55;;;56.28;;
68188;SDS011;55008;47.514;19.218;2022-11-15T01:54:08;184.07;;;54.80;;
68188;SDS011;55008;47.514;19.218;2022-11-15T01:56:43;173.32;;;54.25;;
68188;SDS011;55008;47.514;19.218;2022-11-15T01:59:13;195.88;;;57.17;;
68188;SDS011;55008;47.514;19.218;2022-11-15T02:01:46;165.43;;;53.38;;
68188;SDS011;55008;47.514;19.218;2022-11-15T02:04:21;179.57;;;54.78;;
68188;SDS011;55008;47.514;19.218;2022-11-15T02:06:59;176.80;;;52.92;;
68188;SDS011;55008;47.514;19.218;2022-11-15T02:09:30;181.93;;;52.28;;
68188;SDS011;55008;47.514;19.218;2022-11-15T02:11:59;173.55;;;51.78;;
68188;SDS011;55008;47.514;19.218;2022-11-15T02:14:27;182.00;;;51.95;;
68188;SDS011;55008;47.514;19.218;2022-11-15T02:17:02;180.93;;;51.92;;
68188;SDS011;55008;47.514;19.218;2022-11-15T02:20:03;172.43;;;51.72;;
68188;SDS011;55008;47.514;19.218;2022-11-15T02:26:33;180.90;;;52.65;;
68188;SDS011;55008;47.514;19.218;2022-11-15T02:29:27;164.70;;;49.58;;
68188;SDS011;55008;47.514;19.218;2022-11-15T02:32:06;158.18;;;49.60;;
68188;SDS011;55008;47.514;19.218;2022-11-15T02:34:41;166.10;;;51.22;;
68188;SDS011;55008;47.514;19.218;2022-11-15T02:37:16;165.20;;;50.95;;
68188;SDS011;55008;47.514;19.218;2022-11-15T02:39:57;172.05;;;53.28;;
68188;SDS011;55008;47.514;19.218;2022-11-15T02:42:35;172.52;;;53.80;;
68188;SDS011;55008;47.514;19.218;2022-11-15T02:45:34;161.57;;;53.13;;
68188;SDS011;55008;47.514;19.218;2022-11-15T02:48:11;150.15;;;49.88;;
68188;SDS011;55008;47.514;19.218;2022-11-15T02:50:41;150.65;;;49.63;;
68188;SDS011;55008;47.514;19.218;2022-11-15T02:53:11;136.93;;;47.63;;
68188;SDS011;55008;47.514;19.218;2022-11-15T02:55:43;122.53;;;46.30;;
68188;SDS011;55008;47.514;19.218;2022-11-15T02:58:32;139.45;;;47.70;;
68188;SDS011;55008;47.514;19.218;2022-11-15T03:01:21;133.70;;;47.00;;
68188;SDS011;55008;47.514;19.218;2022-11-15T03:04:05;122.28;;;45.88;;
68188;SDS011;55008;47.514;19.218;2022-11-15T03:06:45;133.38;;;46.10;;
68188;SDS011;55008;47.514;19.218;2022-11-15T03:09:20;131.93;;;46.85;;
68188;SDS011;55008;47.514;19.218;2022-11-15T03:12:00;125.53;;;43.55;;
68188;SDS011;55008;47.514;19.218;2022-11-15T03:14:34;123.95;;;44.45;;
68188;SDS011;55008;47.514;19.218;2022-11-15T03:17:10;113.28;;;43.53;;
68188;SDS011;55008;47.514;19.218;2022-11-15T03:19:46;141.23;;;46.72;;
68188;SDS011;55008;47.514;19.218;2022-11-15T03:22:17;123.18;;;44.60;;
68188;SDS011;55008;47.514;19.218;2022-11-15T03:24:50;120.53;;;44.03;;
68188;SDS011;55008;47.514;19.218;2022-11-15T03:27:21;117.72;;;43.47;;
68188;SDS011;55008;47.514;19.218;2022-11-15T03:29:55;123.82;;;43.08;;
68188;SDS011;55008;47.514;19.218;2022-11-15T03:32:28;109.28;;;40.55;;
68188;SDS011;55008;47.514;19.218;2022-11-15T03:35:08;108.53;;;40.17;;
68188;SDS011;55008;47.514;19.218;2022-11-15T03:37:45;113.65;;;42.00;;
68188;SDS011;55008;47.514;19.218;2022-11-15T03:40:22;111.43;;;40.72;;
68188;SDS011;55008;47.514;19.218;2022-11-15T03:42:56;116.65;;;41.78;;
68188;SDS011;55008;47.514;19.218;2022-11-15T03:45:33;123.53;;;42.42;;
68188;SDS011;55008;47.514;19.218;2022-11-15T03:48:09;119.82;;;41.53;;
68188;SDS011;55008;47.514;19.218;2022-11-15T03:50:42;117.55;;;42.15;;
68188;SDS011;55008;47.514;19.218;2022-11-15T03:53:12;115.50;;;40.10;;
68188;SDS011;55008;47.514;19.218;2022-11-15T03:55:41;111.22;;;40.55;;
68188;SDS011;55008;47.514;19.218;2022-11-15T03:58:10;116.22;;;40.72;;
68188;SDS011;55008;47.514;19.218;2022-11-15T04:00:41;111.82;;;40.58;;
68188;SDS011;55008;47.514;19.218;2022-11-15T04:03:10;113.53;;;41.15;;
68188;SDS011;55008;47.514;19.218;2022-11-15T04:05:44;120.57;;;42.38;;
68188;SDS011;55008;47.514;19.218;2022-11-15T04:08:13;106.05;;;39.17;;
68188;SDS011;55008;47.514;19.218;2022-11-15T04:10:41;115.00;;;42.10;;
68188;SDS011;55008;47.514;19.218;2022-11-15T04:13:11;124.65;;;43.80;;
68188;SDS011;55008;47.514;19.218;2022-11-15T04:15:42;120.85;;;44.13;;
68188;SDS011;55008;47.514;19.218;2022-11-15T04:18:10;125.32;;;45.05;;
68188;SDS011;55008;47.514;19.218;2022-11-15T04:20:39;135.35;;;46.05;;
68188;SDS011;55008;47.514;19.218;2022-11-15T04:23:27;136.57;;;47.20;;
68188;SDS011;55008;47.514;19.218;2022-11-15T04:26:24;122.53;;;45.58;;
68188;SDS011;55008;47.514;19.218;2022-11-15T04:28:55;122.78;;;44.60;;
68188;SDS011;55008;47.514;19.218;2022-11-15T04:31:41;114.72;;;42.10;;
68188;SDS011;55008;47.514;19.218;2022-11-15T04:34:11;116.40;;;43.20;;
68188;SDS011;55008;47.514;19.218;2022-11-15T04:36:39;112.63;;;41.83;;
68188;SDS011;55008;47.514;19.218;2022-11-15T04:39:31;113.45;;;41.42;;
68188;SDS011;55008;47.514;19.218;2022-11-15T04:42:00;116.82;;;43.53;;
68188;SDS011;55008;47.514;19.218;2022-11-15T04:44:28;126.68;;;45.25;;
68188;SDS011;55008;47.514;19.218;2022-11-15T04:46:58;123.70;;;44.47;;
68188;SDS011;55008;47.514;19.218;2022-11-15T04:49:26;112.38;;;42.10;;
68188;SDS011;55008;47.514;19.218;2022-11-15T04:51:55;113.63;;;42.63;;
68188;SDS011;55008;47.514;19.218;2022-11-15T04:54:24;108.38;;;40.53;;
68188;SDS011;55008;47.514;19.218;2022-11-15T04:56:55;108.57;;;40.03;;
68188;SDS011;55008;47.514;19.218;2022-11-15T04:59:25;114.05;;;40.30;;
68188;SDS011;55008;47.514;19.218;2022-11-15T05:01:54;117.82;;;40.22;;
68188;SDS011;55008;47.514;19.218;2022-11-15T05:04:22;100.93;;;36.13;;
68188;SDS011;55008;47.514;19.218;2022-11-15T05:06:50;104.18;;;36.17;;
68188;SDS011;55008;47.514;19.218;2022-11-15T05:09:20;109.53;;;37.50;;
68188;SDS011;55008;47.514;19.218;2022-11-15T05:11:49;98.03;;;36.70;;
68188;SDS011;55008;47.514;19.218;2022-11-15T05:14:19;106.80;;;36.45;;
68188;SDS011;55008;47.514;19.218;2022-11-15T05:16:48;117.57;;;38.38;;
68188;SDS011;55008;47.514;19.218;2022-11-15T05:19:16;111.38;;;39.13;;
68188;SDS011;55008;47.514;19.218;2022-11-15T05:21:45;116.55;;;39.13;;
68188;SDS011;55008;47.514;19.218;2022-11-15T05:24:14;107.28;;;37.95;;
68188;SDS011;55008;47.514;19.218;2022-11-15T05:26:42;106.78;;;37.60;;
68188;SDS011;55008;47.514;19.218;2022-11-15T05:29:11;101.20;;;37.08;;
68188;SDS011;55008;47.514;19.218;2022-11-15T05:31:41;104.43;;;36.85;;
68188;SDS011;55008;47.514;19.218;2022-11-15T05:34:10;95.75;;;35.85;;
68188;SDS011;55008;47.514;19.218;2022-11-15T05:36:41;97.72;;;36.40;;
68188;SDS011;55008;47.514;19.218;2022-11-15T05:39:11;98.22;;;36.00;;
68188;SDS011;55008;47.514;19.218;2022-11-15T05:41:40;102.15;;;37.08;;
68188;SDS011;55008;47.514;19.218;2022-11-15T05:44:14;97.10;;;36.88;;
68188;SDS011;55008;47.514;19.218;2022-11-15T05:46:46;102.15;;;36.00;;
68188;SDS011;55008;47.514;19.218;2022-11-15T05:49:17;94.40;;;35.35;;
68188;SDS011;55008;47.514;19.218;2022-11-15T05:51:48;89.68;;;35.38;;
68188;SDS011;55008;47.514;19.218;2022-11-15T05:54:18;90.80;;;34.78;;
68188;SDS011;55008;47.514;19.218;2022-11-15T05:56:52;92.88;;;35.80;;
68188;SDS011;55008;47.514;19.218;2022-11-15T05:59:22;91.88;;;36.63;;
68188;SDS011;55008;47.514;19.218;2022-11-15T06:01:53;92.00;;;36.58;;
68188;SDS011;55008;47.514;19.218;2022-11-15T06:04:22;98.35;;;37.28;;
68188;SDS011;55008;47.514;19.218;2022-11-15T06:06:51;100.90;;;37.38;;
68188;SDS011;55008;47.514;19.218;2022-11-15T06:09:21;95.25;;;37.13;;
68188;SDS011;55008;47.514;19.218;2022-11-15T06:11:52;95.22;;;36.20;;
68188;SDS011;55008;47.514;19.218;2022-11-15T06:14:23;96.75;;;36.92;;
68188;SDS011;55008;47.514;19.218;2022-11-15T06:16:53;94.13;;;35.88;;
68188;SDS011;55008;47.514;19.218;2022-11-15T06:19:25;97.32;;;37.08;;
68188;SDS011;55008;47.514;19.218;2022-11-15T06:21:59;100.70;;;36.90;;
68188;SDS011;55008;47.514;19.218;2022-11-15T06:24:28;98.43;;;36.83;;
68188;SDS011;55008;47.514;19.218;2022-11-15T06:27:03;97.40;;;37.63;;
68188;SDS011;55008;47.514;19.218;2022-11-15T06:29:32;99.15;;;38.40;;
68188;SDS011;55008;47.514;19.218;2022-11-15T06:32:02;100.07;;;38.38;;
68188;SDS011;55008;47.514;19.218;2022-11-15T06:34:33;120.55;;;46.95;;
68188;SDS011;55008;47.514;19.218;2022-11-15T06:37:03;111.82;;;46.90;;
68188;SDS011;55008;47.514;19.218;2022-11-15T06:39:34;117.63;;;49.25;;
68188;SDS011;55008;47.514;19.218;2022-11-15T06:42:03;108.15;;;42.33;;
68188;SDS011;55008;47.514;19.218;2022-11-15T06:44:36;96.63;;;42.25;;
68188;SDS011;55008;47.514;19.218;2022-11-15T06:47:08;104.22;;;43.72;;
68188;SDS011;55008;47.514;19.218;2022-11-15T06:49:36;94.22;;;39.83;;
68188;SDS011;55008;47.514;19.218;2022-11-15T06:52:14;89.85;;;38.67;;
68188;SDS011;55008;47.514;19.218;2022-11-15T06:54:46;90.55;;;39.83;;
68188;SDS011;55008;47.514;19.218;2022-11-15T06:57:14;89.00;;;39.60;;
68188;SDS011;55008;47.514;19.218;2022-11-15T06:59:46;93.63;;;41.47;;
68188;SDS011;55008;47.514;19.218;2022-11-15T07:02:21;106.47;;;45.10;;
68188;SDS011;55008;47.514;19.218;2022-11-15T07:04:53;102.45;;;43.92;;
68188;SDS011;55008;47.514;19.218;2022-11-15T07:09:56;104.85;;;46.63;;
68188;SDS011;55008;47.514;19.218;2022-11-15T07:12:26;93.13;;;41.55;;
68188;SDS011;55008;47.514;19.218;2022-11-15T07:14:59;91.93;;;40.03;;
68188;SDS011;55008;47.514;19.218;2022-11-15T07:17:33;87.05;;;37.65;;
68188;SDS011;55008;47.514;19.218;2022-11-15T07:20:01;87.40;;;38.53;;
68188;SDS011;55008;47.514;19.218;2022-11-15T07:22:33;101.05;;;40.80;;
68188;SDS011;55008;47.514;19.218;2022-11-15T07:25:06;91.53;;;40.53;;
68188;SDS011;55008;47.514;19.218;2022-11-15T07:27:40;93.25;;;40.85;;
68188;SDS011;55008;47.514;19.218;2022-11-15T07:32:48;89.68;;;39.85;;
68188;SDS011;55008;47.514;19.218;2022-11-15T07:35:20;90.40;;;38.45;;
68188;SDS011;55008;47.514;19.218;2022-11-15T07:37:54;84.13;;;37.53;;
68188;SDS011;55008;47.514;19.218;2022-11-15T07:40:24;91.22;;;39.72;;
68188;SDS011;55008;47.514;19.218;2022-11-15T07:42:58;97.72;;;41.83;;
68188;SDS011;55008;47.514;19.218;2022-11-15T07:45:39;98.68;;;41.42;;
68188;SDS011;55008;47.514;19.218;2022-11-15T07:48:19;101.63;;;44.30;;
68188;SDS011;55008;47.514;19.218;2022-11-15T07:50:51;96.53;;;42.60;;
68188;SDS011;55008;47.514;19.218;2022-11-15T07:53:21;97.50;;;43.17;;
68188;SDS011;55008;47.514;19.218;2022-11-15T07:55:50;92.20;;;43.95;;
68188;SDS011;55008;47.514;19.218;2022-11-15T07:58:24;84.85;;;40.83;;
68188;SDS011;55008;47.514;19.218;2022-11-15T08:00:57;88.85;;;40.63;;
68188;SDS011;55008;47.514;19.218;2022-11-15T08:03:35;83.03;;;39.78;;
68188;SDS011;55008;47.514;19.218;2022-11-15T08:06:04;82.40;;;39.47;;
68188;SDS011;55008;47.514;19.218;2022-11-15T08:08:33;74.35;;;39.38;;
68188;SDS011;55008;47.514;19.218;2022-11-15T08:11:01;67.13;;;37.53;;
68188;SDS011;55008;47.514;19.218;2022-11-15T08:13:30;64.20;;;36.42;;
68188;SDS011;55008;47.514;19.218;2022-11-15T08:15:59;60.75;;;35.25;;
68188;SDS011;55008;47.514;19.218;2022-11-15T08:18:28;61.83;;;35.55;;
68188;SDS011;55008;47.514;19.218;2022-11-15T08:21:04;64.00;;;35.80;;
68188;SDS011;55008;47.514;19.218;2022-11-15T08:23:33;68.95;;;35.97;;
68188;SDS011;55008;47.514;19.218;2022-11-15T08:26:01;61.63;;;34.85;;
68188;SDS011;55008;47.514;19.218;2022-11-15T08:28:31;58.47;;;33.83;;
68188;SDS011;55008;47.514;19.218;2022-11-15T08:31:00;62.83;;;34.90;;
68188;SDS011;55008;47.514;19.218;2022-11-15T08:33:29;59.80;;;33.38;;
68188;SDS011;55008;47.514;19.218;2022-11-15T08:35:58;61.38;;;33.55;;
68188;SDS011;55008;47.514;19.218;2022-11-15T08:38:30;67.03;;;34.70;;
68188;SDS011;55008;47.514;19.218;2022-11-15T08:41:00;61.53;;;34.80;;
68188;SDS011;55008;47.514;19.218;2022-11-15T08:43:31;58.90;;;33.67;;
68188;SDS011;55008;47.514;19.218;2022-11-15T08:46:00;55.42;;;32.55;;
68188;SDS011;55008;47.514;19.218;2022-11-15T08:48:29;54.83;;;31.55;;
68188;SDS011;55008;47.514;19.218;2022-11-15T08:50:58;52.42;;;31.08;;
68188;SDS011;55008;47.514;19.218;2022-11-15T08:53:26;56.28;;;31.67;;
68188;SDS011;55008;47.514;19.218;2022-11-15T08:55:56;53.38;;;31.70;;
68188;SDS011;55008;47.514;19.218;2022-11-15T08:58:25;50.42;;;31.05;;
68188;SDS011;55008;47.514;19.218;2022-11-15T09:00:54;52.50;;;30.40;;
68188;SDS011;55008;47.514;19.218;2022-11-15T09:03:23;55.15;;;32.00;;
68188;SDS011;55008;47.514;19.218;2022-11-15T09:05:53;52.97;;;31.45;;
68188;SDS011;55008;47.514;19.218;2022-11-15T09:08:23;53.15;;;31.48;;
68188;SDS011;55008;47.514;19.218;2022-11-15T09:11:14;55.85;;;32.92;;
68188;SDS011;55008;47.514;19.218;2022-11-15T09:13:43;55.47;;;32.95;;
68188;SDS011;55008;47.514;19.218;2022-11-15T09:16:11;59.05;;;34.17;;
68188;SDS011;55008;47.514;19.218;2022-11-15T09:18:42;53.65;;;32.28;;
68188;SDS011;55008;47.514;19.218;2022-11-15T09:21:10;56.25;;;33.22;;
68188;SDS011;55008;47.514;19.218;2022-11-15T09:23:40;55.85;;;32.72;;
68188;SDS011;55008;47.514;19.218;2022-11-15T09:26:09;53.50;;;31.80;;
68188;SDS011;55008;47.514;19.218;2022-11-15T09:28:39;52.67;;;31.52;;
68188;SDS011;55008;47.514;19.218;2022-11-15T09:31:09;51.33;;;30.92;;
68188;SDS011;55008;47.514;19.218;2022-11-15T09:33:39;50.45;;;30.83;;
68188;SDS011;55008;47.514;19.218;2022-11-15T09:36:07;54.20;;;32.03;;
68188;SDS011;55008;47.514;19.218;2022-11-15T09:38:37;55.08;;;33.92;;
68188;SDS011;55008;47.514;19.218;2022-11-15T09:44:12;50.00;;;31.48;;
68188;SDS011;55008;47.514;19.218;2022-11-15T09:47:00;51.17;;;32.15;;
68188;SDS011;55008;47.514;19.218;2022-11-15T09:49:44;52.50;;;32.22;;
68188;SDS011;55008;47.514;19.218;2022-11-15T09:52:19;51.67;;;32.28;;
68188;SDS011;55008;47.514;19.218;2022-11-15T09:54:49;57.08;;;33.65;;
68188;SDS011;55008;47.514;19.218;2022-11-15T09:57:24;52.58;;;33.28;;
68188;SDS011;55008;47.514;19.218;2022-11-15T10:00:04;53.22;;;30.35;;
68188;SDS011;55008;47.514;19.218;2022-11-15T10:03:08;50.90;;;30.70;;
68188;SDS011;55008;47.514;19.218;2022-11-15T10:05:41;51.03;;;29.45;;
68188;SDS011;55008;47.514;19.218;2022-11-15T10:08:20;50.10;;;30.90;;
68188;SDS011;55008;47.514;19.218;2022-11-15T10:10:57;53.38;;;31.73;;
68188;SDS011;55008;47.514;19.218;2022-11-15T10:13:47;54.15;;;32.70;;
68188;SDS011;55008;47.514;19.218;2022-11-15T10:16:25;52.63;;;30.77;;
68188;SDS011;55008;47.514;19.218;2022-11-15T10:19:20;49.00;;;29.50;;
68188;SDS011;55008;47.514;19.218;2022-11-15T10:21:56;46.35;;;29.50;;
68188;SDS011;55008;47.514;19.218;2022-11-15T10:24:34;52.70;;;31.77;;
68188;SDS011;55008;47.514;19.218;2022-11-15T10:27:10;51.40;;;31.13;;
68188;SDS011;55008;47.514;19.218;2022-11-15T10:29:44;53.45;;;29.73;;
68188;SDS011;55008;47.514;19.218;2022-11-15T10:32:18;51.95;;;30.80;;
68188;SDS011;55008;47.514;19.218;2022-11-15T10:34:56;52.00;;;31.10;;
68188;SDS011;55008;47.514;19.218;2022-11-15T10:37:27;48.50;;;30.33;;
68188;SDS011;55008;47.514;19.218;2022-11-15T10:40:03;49.53;;;30.42;;
68188;SDS011;55008;47.514;19.218;2022-11-15T10:42:33;51.45;;;31.58;;
68188;SDS011;55008;47.514;19.218;2022-11-15T10:45:04;51.58;;;31.92;;
68188;SDS011;55008;47.514;19.218;2022-11-15T10:47:55;52.20;;;31.58;;
68188;SDS011;55008;47.514;19.218;2022-11-15T10:50:49;51.45;;;31.48;;
68188;SDS011;55008;47.514;19.218;2022-11-15T10:53:22;52.75;;;31.55;;
68188;SDS011;55008;47.514;19.218;2022-11-15T10:55:55;50.38;;;31.10;;
68188;SDS011;55008;47.514;19.218;2022-11-15T10:58:33;52.67;;;30.90;;
68188;SDS011;55008;47.514;19.218;2022-11-15T11:01:11;52.47;;;31.33;;
68188;SDS011;55008;47.514;19.218;2022-11-15T11:03:44;55.45;;;32.80;;
68188;SDS011;55008;47.514;19.218;2022-11-15T11:06:24;54.53;;;31.83;;
68188;SDS011;55008;47.514;19.218;2022-11-15T11:08:55;53.83;;;32.42;;
68188;SDS011;55008;47.514;19.218;2022-11-15T11:11:24;58.80;;;32.80;;
68188;SDS011;55008;47.514;19.218;2022-11-15T11:13:53;54.45;;;32.70;;
68188;SDS011;55008;47.514;19.218;2022-11-15T11:16:34;48.75;;;30.90;;
68188;SDS011;55008;47.514;19.218;2022-11-15T11:19:18;55.63;;;31.40;;
68188;SDS011;55008;47.514;19.218;2022-11-15T11:22:03;60.05;;;34.90;;
68188;SDS011;55008;47.514;19.218;2022-11-15T11:24:40;61.65;;;34.80;;
68188;SDS011;55008;47.514;19.218;2022-11-15T11:27:17;69.05;;;34.90;;
68188;SDS011;55008;47.514;19.218;2022-11-15T11:29:56;62.17;;;36.05;;
68188;SDS011;55008;47.514;19.218;2022-11-15T11:32:46;59.03;;;34.13;;
68188;SDS011;55008;47.514;19.218;2022-11-15T11:35:24;57.80;;;31.52;;
68188;SDS011;55008;47.514;19.218;2022-11-15T11:38:03;52.33;;;30.38;;
68188;SDS011;55008;47.514;19.218;2022-11-15T11:40:43;49.88;;;30.55;;
68188;SDS011;55008;47.514;19.218;2022-11-15T11:43:20;48.97;;;29.48;;
68188;SDS011;55008;47.514;19.218;2022-11-15T11:46:04;48.38;;;29.48;;
68188;SDS011;55008;47.514;19.218;2022-11-15T11:48:52;48.80;;;28.48;;
68188;SDS011;55008;47.514;19.218;2022-11-15T11:51:34;49.28;;;29.23;;
68188;SDS011;55008;47.514;19.218;2022-11-15T11:54:10;48.78;;;29.20;;
68188;SDS011;55008;47.514;19.218;2022-11-15T11:56:43;47.13;;;28.67;;
68188;SDS011;55008;47.514;19.218;2022-11-15T11:59:16;50.85;;;29.90;;
68188;SDS011;55008;47.514;19.218;2022-11-15T12:01:50;48.20;;;30.40;;
68188;SDS011;55008;47.514;19.218;2022-11-15T12:04:20;49.60;;;30.23;;
68188;SDS011;55008;47.514;19.218;2022-11-15T12:06:57;51.08;;;31.33;;
68188;SDS011;55008;47.514;19.218;2022-11-15T12:09:30;56.15;;;34.45;;
68188;SDS011;55008;47.514;19.218;2022-11-15T12:12:06;55.90;;;35.17;;
68188;SDS011;55008;47.514;19.218;2022-11-15T12:14:42;59.30;;;33.55;;
68188;SDS011;55008;47.514;19.218;2022-11-15T12:17:14;56.55;;;33.50;;
68188;SDS011;55008;47.514;19.218;2022-11-15T12:19:46;57.55;;;32.53;;
68188;SDS011;55008;47.514;19.218;2022-11-15T12:22:18;55.47;;;32.13;;
68188;SDS011;55008;47.514;19.218;2022-11-15T12:24:51;55.92;;;32.47;;
68188;SDS011;55008;47.514;19.218;2022-11-15T12:27:26;58.60;;;33.63;;
68188;SDS011;55008;47.514;19.218;2022-11-15T12:30:08;61.42;;;34.85;;
68188;SDS011;55008;47.514;19.218;2022-11-15T12:32:47;62.50;;;35.50;;
68188;SDS011;55008;47.514;19.218;2022-11-15T12:35:24;64.50;;;36.70;;
68188;SDS011;55008;47.514;19.218;2022-11-15T12:37:56;63.03;;;36.40;;
68188;SDS011;55008;47.514;19.218;2022-11-15T12:40:32;62.40;;;36.28;;
68188;SDS011;55008;47.514;19.218;2022-11-15T12:46:02;63.47;;;36.78;;
68188;SDS011;55008;47.514;19.218;2022-11-15T12:48:46;63.60;;;35.92;;
68188;SDS011;55008;47.514;19.218;2022-11-15T12:51:19;64.95;;;36.45;;
68188;SDS011;55008;47.514;19.218;2022-11-15T12:53:50;65.95;;;37.75;;
68188;SDS011;55008;47.514;19.218;2022-11-15T12:56:22;62.53;;;36.47;;
68188;SDS011;55008;47.514;19.218;2022-11-15T12:58:53;65.32;;;35.72;;
68188;SDS011;55008;47.514;19.218;2022-11-15T13:04:25;61.05;;;34.08;;
68188;SDS011;55008;47.514;19.218;2022-11-15T13:06:56;62.08;;;34.28;;
68188;SDS011;55008;47.514;19.218;2022-11-15T13:18:36;60.55;;;35.33;;
68188;SDS011;55008;47.514;19.218;2022-11-15T13:21:19;67.32;;;37.00;;
68188;SDS011;55008;47.514;19.218;2022-11-15T13:24:11;68.15;;;37.10;;
68188;SDS011;55008;47.514;19.218;2022-11-15T13:26:42;72.82;;;38.33;;
68188;SDS011;55008;47.514;19.218;2022-11-15T13:29:16;71.00;;;39.45;;
68188;SDS011;55008;47.514;19.218;2022-11-15T13:31:45;76.35;;;41.22;;
68188;SDS011;55008;47.514;19.218;2022-11-15T13:34:25;77.40;;;40.78;;
68188;SDS011;55008;47.514;19.218;2022-11-15T13:37:29;73.82;;;37.58;;
68188;SDS011;55008;47.514;19.218;2022-11-15T13:40:17;74.32;;;35.72;;
68188;SDS011;55008;47.514;19.218;2022-11-15T13:42:53;64.88;;;34.85;;
68188;SDS011;55008;47.514;19.218;2022-11-15T13:45:32;63.90;;;35.42;;
68188;SDS011;55008;47.514;19.218;2022-11-15T13:48:04;67.75;;;37.50;;
68188;SDS011;55008;47.514;19.218;2022-11-15T13:50:42;65.90;;;36.70;;
68188;SDS011;55008;47.514;19.218;2022-11-15T13:53:13;62.85;;;34.45;;
68188;SDS011;55008;47.514;19.218;2022-11-15T13:55:45;64.80;;;34.25;;
68188;SDS011;55008;47.514;19.218;2022-11-15T13:58:21;61.85;;;33.15;;
68188;SDS011;55008;47.514;19.218;2022-11-15T14:00:57;58.28;;;32.00;;
68188;SDS011;55008;47.514;19.218;2022-11-15T14:03:29;63.70;;;32.15;;
68188;SDS011;55008;47.514;19.218;2022-11-15T14:06:08;62.33;;;33.50;;
68188;SDS011;55008;47.514;19.218;2022-11-15T14:08:39;58.85;;;31.92;;
68188;SDS011;55008;47.514;19.218;2022-11-15T14:11:10;61.80;;;33.67;;
68188;SDS011;55008;47.514;19.218;2022-11-15T14:14:02;53.92;;;30.25;;
68188;SDS011;55008;47.514;19.218;2022-11-15T14:16:43;57.35;;;30.27;;
68188;SDS011;55008;47.514;19.218;2022-11-15T14:22:10;55.35;;;30.17;;
68188;SDS011;55008;47.514;19.218;2022-11-15T14:24:42;57.45;;;29.33;;
68188;SDS011;55008;47.514;19.218;2022-11-15T14:27:24;56.40;;;31.25;;
68188;SDS011;55008;47.514;19.218;2022-11-15T14:29:59;57.92;;;31.27;;
68188;SDS011;55008;47.514;19.218;2022-11-15T14:32:37;58.00;;;30.98;;
68188;SDS011;55008;47.514;19.218;2022-11-15T14:35:16;59.75;;;31.75;;
68188;SDS011;55008;47.514;19.218;2022-11-15T14:37:46;64.30;;;32.97;;
68188;SDS011;55008;47.514;19.218;2022-11-15T14:40:18;64.47;;;33.00;;
68188;SDS011;55008;47.514;19.218;2022-11-15T14:42:49;62.33;;;31.75;;
68188;SDS011;55008;47.514;19.218;2022-11-15T14:45:26;65.43;;;32.85;;
68188;SDS011;55008;47.514;19.218;2022-11-15T14:47:57;55.38;;;28.67;;
68188;SDS011;55008;47.514;19.218;2022-11-15T14:50:27;54.07;;;28.43;;
68188;SDS011;55008;47.514;19.218;2022-11-15T14:52:56;53.15;;;28.52;;
68188;SDS011;55008;47.514;19.218;2022-11-15T14:55:26;50.67;;;27.83;;
68188;SDS011;55008;47.514;19.218;2022-11-15T14:57:58;52.58;;;29.17;;
68188;SDS011;55008;47.514;19.218;2022-11-15T15:00:36;58.60;;;30.75;;
68188;SDS011;55008;47.514;19.218;2022-11-15T15:03:05;53.67;;;28.08;;
68188;SDS011;55008;47.514;19.218;2022-11-15T15:05:37;49.40;;;27.65;;
68188;SDS011;55008;47.514;19.218;2022-11-15T15:08:10;52.50;;;28.08;;
68188;SDS011;55008;47.514;19.218;2022-11-15T15:10:39;54.85;;;28.65;;